Time;durP1;ratioP1;P1;durP2;ratioP2;P2;SDS_P1;SDS_P2;PMS_P1;PMS_P2;Temp;Humidity;BMP_temperature;BMP_pressure;BME280_temperature;BME280_humidity;BME280_pressure;Samples;Min_cycle;Max_cycle;Signal;HPM_P1;HPM_P2
2021/12/12 00:00:15;;;;;;;95.23;41.10;;;3.70;99.90;;;;;;4681560;30;20132;-88
2021/12/12 00:02:56;;;;;;;86.43;39.93;;;3.80;99.90;;;;;;4681082;30;20474;-87
2021/12/12 00:05:26;;;;;;;85.23;40.33;;;3.80;99.90;;;;;;4681210;30;20052;-86
2021/12/12 00:07:52;;;;;;;82.10;37.80;;;3.70;99.90;;;;;;4682143;30;20041;-88
2021/12/12 00:10:24;;;;;;;85.03;39.60;;;3.80;99.90;;;;;;4683106;30;20326;-89
2021/12/12 00:12:53;;;;;;;82.55;38.22;;;3.70;99.90;;;;;;4668570;30;20050;-87
2021/12/12 00:15:21;;;;;;;83.73;37.90;;;3.80;99.90;;;;;;4683743;30;20065;-86
2021/12/12 00:17:47;;;;;;;82.40;38.27;;;3.80;99.90;;;;;;4682228;30;20057;-87
2021/12/12 00:20:17;;;;;;;83.83;38.37;;;3.80;99.90;;;;;;4674063;30;20053;-84
2021/12/12 00:22:44;;;;;;;80.93;37.07;;;3.80;99.90;;;;;;4709000;30;20132;-86
2021/12/12 00:25:11;;;;;;;82.47;36.70;;;3.80;99.90;;;;;;4668282;30;20086;-86
2021/12/12 00:27:37;;;;;;;81.43;36.67;;;3.80;99.90;;;;;;4683794;30;20052;-86
2021/12/12 00:30:05;;;;;;;76.43;38.27;;;3.80;99.90;;;;;;4695653;30;20049;-85
2021/12/12 00:32:36;;;;;;;81.57;38.37;;;3.80;99.90;;;;;;4695509;30;20507;-86
2021/12/12 00:35:11;;;;;;;74.73;35.00;;;3.80;99.90;;;;;;4695832;30;20162;-82
2021/12/12 00:37:37;;;;;;;81.93;36.80;;;3.80;99.90;;;;;;4681630;30;20399;-82
2021/12/12 00:40:20;;;;;;;75.13;35.00;;;3.80;99.90;;;;;;4696067;30;20037;-82
2021/12/12 00:42:47;;;;;;;77.37;35.27;;;3.80;99.90;;;;;;4680698;30;20045;-82
2021/12/12 00:45:15;;;;;;;80.40;38.33;;;3.80;99.90;;;;;;4695700;30;20046;-82
2021/12/12 00:47:48;;;;;;;78.53;36.53;;;3.90;99.90;;;;;;4680801;30;20045;-81
2021/12/12 00:50:21;;;;;;;80.07;39.57;;;3.80;99.90;;;;;;4668431;30;20178;-82
2021/12/12 00:52:48;;;;;;;78.73;36.70;;;3.80;99.90;;;;;;4696105;30;20377;-82
2021/12/12 00:55:15;;;;;;;71.30;35.53;;;3.80;99.90;;;;;;4671711;30;20068;-82
2021/12/12 00:57:41;;;;;;;75.23;35.57;;;3.80;99.90;;;;;;4696441;30;20487;-81
2021/12/12 01:00:10;;;;;;;79.03;37.03;;;3.80;99.90;;;;;;4682302;30;20053;-82
2021/12/12 01:02:38;;;;;;;72.00;35.73;;;3.80;99.90;;;;;;4694981;30;20052;-82
2021/12/12 01:05:08;;;;;;;76.90;36.30;;;3.80;99.90;;;;;;4697631;30;20107;-82
2021/12/12 01:07:37;;;;;;;74.00;34.97;;;3.90;99.90;;;;;;4697555;30;20053;-87
2021/12/12 01:10:21;;;;;;;74.63;35.33;;;3.80;99.90;;;;;;4696672;30;20132;-86
2021/12/12 01:12:47;;;;;;;75.20;34.80;;;3.80;99.90;;;;;;4671042;30;20467;-88
2021/12/12 01:15:18;;;;;;;75.97;36.43;;;3.80;99.90;;;;;;4695846;30;20046;-87
2021/12/12 01:17:48;;;;;;;78.70;35.78;;;3.90;99.90;;;;;;4685958;30;20045;-86
2021/12/12 01:20:49;;;;;;;68.70;32.93;;;4.00;99.90;;;;;;4700554;30;20091;-87
2021/12/12 01:23:30;;;;;;;73.70;35.47;;;3.80;99.90;;;;;;4669884;30;20062;-86
2021/12/12 01:25:57;;;;;;;69.93;33.70;;;3.90;99.90;;;;;;4674098;30;20510;-85
2021/12/12 01:28:26;;;;;;;71.83;35.10;;;3.90;99.90;;;;;;4684090;30;20057;-87
2021/12/12 01:30:54;;;;;;;68.83;32.17;;;3.80;99.90;;;;;;4698816;30;20045;-87
2021/12/12 01:33:34;;;;;;;70.23;34.47;;;3.90;99.90;;;;;;4683940;30;20045;-86
2021/12/12 01:36:08;;;;;;;67.07;32.80;;;3.90;99.90;;;;;;4684998;30;20472;-88
2021/12/12 01:38:56;;;;;;;71.93;34.77;;;3.90;99.90;;;;;;4701231;30;20070;-87
2021/12/12 01:41:51;;;;;;;67.10;32.10;;;3.90;99.90;;;;;;4683966;30;20509;-87
2021/12/12 01:44:29;;;;;;;70.57;32.10;;;3.90;99.90;;;;;;4680976;30;20049;-86
2021/12/12 01:47:14;;;;;;;62.53;32.47;;;3.90;99.90;;;;;;4680892;30;20053;-86
2021/12/12 01:49:42;;;;;;;74.87;33.63;;;3.90;99.90;;;;;;4684181;30;20081;-81
2021/12/12 01:52:12;;;;;;;63.83;32.03;;;3.90;99.90;;;;;;4701029;30;20049;-81
2021/12/12 01:54:44;;;;;;;65.13;32.33;;;4.00;99.90;;;;;;4698864;30;20061;-81
2021/12/12 01:57:14;;;;;;;66.68;32.40;;;4.00;99.90;;;;;;4699447;30;20037;-81
2021/12/12 01:59:42;;;;;;;70.50;33.23;;;4.00;99.90;;;;;;4696555;30;20045;-81
2021/12/12 02:02:26;;;;;;;67.60;33.07;;;4.00;99.90;;;;;;4696130;30;20385;-81
2021/12/12 02:04:55;;;;;;;70.77;32.90;;;4.00;99.90;;;;;;4697002;30;20080;-82
2021/12/12 02:07:27;;;;;;;70.53;31.87;;;4.10;99.90;;;;;;4699818;30;20127;-81
2021/12/12 02:09:54;;;;;;;75.18;32.58;;;3.90;99.90;;;;;;4683957;30;20072;-82
2021/12/12 02:12:23;;;;;;;63.17;31.63;;;3.90;99.90;;;;;;4701194;30;20052;-82
2021/12/12 02:14:50;;;;;;;69.73;31.97;;;4.00;99.90;;;;;;4700457;30;20580;-82
2021/12/12 02:17:33;;;;;;;61.63;29.20;;;4.00;99.90;;;;;;4697677;30;20049;-82
2021/12/12 02:20:10;;;;;;;65.57;30.77;;;4.00;99.90;;;;;;4697433;30;20081;-82
2021/12/12 02:36:22;;;;;;;59.90;28.77;;;4.10;99.90;;;;;;4643770;30;20063;-81
2021/12/12 02:38:51;;;;;;;58.97;27.80;;;4.10;99.90;;;;;;4696725;30;20054;-81
2021/12/12 02:41:20;;;;;;;60.00;29.60;;;4.10;99.90;;;;;;4681018;30;20116;-80
2021/12/12 02:43:54;;;;;;;57.40;27.40;;;4.10;99.90;;;;;;4698005;30;20045;-81
2021/12/12 02:46:28;;;;;;;58.37;29.73;;;4.10;99.90;;;;;;4696740;30;20053;-81
2021/12/12 02:49:06;;;;;;;57.50;28.50;;;4.10;99.90;;;;;;4696595;30;20046;-81
2021/12/12 02:51:32;;;;;;;56.80;27.63;;;4.20;99.90;;;;;;4680941;30;20046;-81
2021/12/12 02:53:59;;;;;;;59.60;27.60;;;4.10;99.90;;;;;;4696249;30;21615;-81
2021/12/12 02:56:29;;;;;;;55.27;25.50;;;4.10;99.90;;;;;;4682176;30;20115;-81
2021/12/12 02:58:56;;;;;;;51.83;26.13;;;4.10;99.90;;;;;;4697830;30;20095;-81
2021/12/12 03:01:32;;;;;;;49.47;25.30;;;4.20;99.90;;;;;;4690943;30;20049;-81
2021/12/12 03:03:58;;;;;;;55.67;26.07;;;4.20;99.90;;;;;;4695604;30;20463;-81
2021/12/12 03:06:28;;;;;;;55.33;27.23;;;4.20;99.90;;;;;;4698423;30;20495;-80
2021/12/12 03:09:01;;;;;;;53.53;26.23;;;4.20;99.90;;;;;;4697213;30;20111;-80
2021/12/12 03:11:28;;;;;;;53.33;26.27;;;4.30;99.90;;;;;;4698139;30;20060;-81
2021/12/12 03:13:55;;;;;;;43.90;24.63;;;4.20;99.90;;;;;;4658111;30;20065;-81
2021/12/12 03:16:21;;;;;;;50.97;23.30;;;4.30;99.90;;;;;;4697769;30;20118;-80
2021/12/12 03:18:48;;;;;;;43.43;23.07;;;4.30;99.90;;;;;;4696765;30;20114;-81
2021/12/12 03:21:28;;;;;;;51.77;24.83;;;4.20;99.90;;;;;;4698058;30;20124;-80
2021/12/12 03:23:56;;;;;;;44.17;21.73;;;4.30;99.90;;;;;;4696817;30;20167;-81
2021/12/12 03:26:22;;;;;;;45.23;23.53;;;4.30;99.90;;;;;;4698773;30;20123;-81
2021/12/12 03:28:54;;;;;;;42.27;22.97;;;4.30;99.90;;;;;;4682522;30;20053;-81
2021/12/12 03:31:24;;;;;;;53.65;25.00;;;4.30;99.90;;;;;;4681596;30;20178;-81
2021/12/12 03:33:50;;;;;;;42.50;22.43;;;4.30;99.90;;;;;;4697573;30;20499;-81
2021/12/12 03:36:17;;;;;;;42.30;22.37;;;4.40;99.90;;;;;;4699079;30;20073;-80
2021/12/12 03:38:53;;;;;;;43.80;21.50;;;4.40;99.90;;;;;;4695705;30;20114;-81
2021/12/12 03:41:26;;;;;;;43.43;22.37;;;4.40;99.90;;;;;;4698177;30;20052;-80
2021/12/12 03:43:55;;;;;;;41.77;21.67;;;4.50;99.90;;;;;;4680344;30;20602;-80
2021/12/12 03:46:21;;;;;;;41.63;21.70;;;4.50;99.90;;;;;;4687119;30;20245;-81
2021/12/12 03:48:47;;;;;;;40.93;19.80;;;4.50;99.90;;;;;;4697622;30;20045;-81
2021/12/12 03:51:16;;;;;;;39.30;19.70;;;4.50;99.90;;;;;;4698303;30;20057;-81
2021/12/12 03:53:43;;;;;;;44.13;19.83;;;4.50;99.90;;;;;;4698569;30;20400;-81
2021/12/12 03:56:11;;;;;;;36.27;18.80;;;4.50;99.90;;;;;;4697336;30;20061;-80
2021/12/12 03:58:37;;;;;;;34.27;19.50;;;4.70;99.90;;;;;;4697307;30;20145;-81
2021/12/12 04:01:14;;;;;;;38.03;20.17;;;4.60;99.90;;;;;;4680979;30;20065;-80
2021/12/12 04:03:41;;;;;;;42.13;19.93;;;4.60;99.90;;;;;;4696754;30;20049;-80
2021/12/12 04:06:11;;;;;;;32.97;19.83;;;4.60;99.90;;;;;;4680567;30;20494;-81
2021/12/12 04:08:40;;;;;;;35.67;19.03;;;4.70;99.90;;;;;;4680712;30;20045;-81
2021/12/12 04:11:14;;;;;;;34.50;19.33;;;4.70;99.90;;;;;;4682497;30;20048;-81
2021/12/12 04:13:42;;;;;;;33.90;18.90;;;4.60;99.90;;;;;;4695141;30;20112;-82
2021/12/12 04:16:09;;;;;;;35.80;19.80;;;4.60;99.90;;;;;;4697598;30;20043;-80
2021/12/12 04:18:35;;;;;;;41.70;18.93;;;4.70;99.90;;;;;;4696422;30;20133;-80
2021/12/12 04:21:01;;;;;;;40.80;19.10;;;4.60;99.90;;;;;;4699914;30;20449;-82
2021/12/12 04:23:27;;;;;;;38.90;18.83;;;4.70;99.90;;;;;;4681359;30;20050;-80
2021/12/12 04:25:54;;;;;;;35.60;18.73;;;4.70;99.90;;;;;;4665377;30;20512;-81
2021/12/12 04:28:20;;;;;;;34.10;17.97;;;4.70;99.90;;;;;;4666067;30;20084;-80
2021/12/12 04:30:46;;;;;;;32.03;18.10;;;4.60;99.90;;;;;;4683644;30;20076;-81
2021/12/12 04:33:12;;;;;;;33.87;17.97;;;4.60;99.90;;;;;;4695885;30;20128;-81
2021/12/12 04:35:38;;;;;;;31.70;18.37;;;4.70;99.90;;;;;;4680112;30;20489;-82
2021/12/12 04:38:05;;;;;;;35.27;16.83;;;4.70;99.90;;;;;;4680684;30;20054;-80
2021/12/12 04:40:34;;;;;;;35.23;18.10;;;4.70;99.90;;;;;;4695499;30;20192;-81
2021/12/12 04:43:01;;;;;;;30.30;16.90;;;4.70;99.90;;;;;;4681814;30;20046;-80
2021/12/12 04:46:08;;;;;;;30.60;16.77;;;4.70;99.90;;;;;;4697545;30;20056;-80
2021/12/12 04:51:50;;;;;;;32.97;17.40;;;4.70;99.90;;;;;;4695933;30;20091;-82
2021/12/12 04:54:33;;;;;;;33.37;17.23;;;4.80;99.90;;;;;;4680923;30;20569;-81
2021/12/12 04:57:45;;;;;;;26.90;16.73;;;4.70;99.90;;;;;;4700463;30;20116;-80
2021/12/12 05:00:21;;;;;;;33.20;17.27;;;4.80;99.90;;;;;;4683413;30;20046;-80
2021/12/12 05:03:16;;;;;;;32.27;18.57;;;4.80;99.90;;;;;;4686319;30;20154;-80
2021/12/12 05:06:00;;;;;;;24.60;15.17;;;4.80;99.90;;;;;;4664638;30;20064;-80
2021/12/12 05:08:36;;;;;;;28.50;15.50;;;4.80;99.90;;;;;;4697795;30;20422;-80
2021/12/12 05:11:10;;;;;;;26.47;15.43;;;4.80;99.90;;;;;;4685760;30;20050;-79
2021/12/12 05:13:56;;;;;;;21.83;14.70;;;4.80;99.90;;;;;;4698235;30;20045;-80
2021/12/12 05:16:29;;;;;;;23.63;15.13;;;4.90;99.90;;;;;;4700222;30;20046;-80
2021/12/12 05:19:05;;;;;;;21.83;13.93;;;4.90;99.90;;;;;;4699671;30;20053;-79
2021/12/12 05:21:34;;;;;;;25.33;14.23;;;4.90;99.90;;;;;;4691703;30;20041;-79
2021/12/12 05:24:05;;;;;;;22.80;12.70;;;4.90;99.90;;;;;;4699664;30;20045;-80
2021/12/12 05:26:36;;;;;;;21.97;13.57;;;4.90;99.90;;;;;;4700332;30;20049;-79
2021/12/12 05:29:14;;;;;;;18.60;12.50;;;5.00;99.90;;;;;;4693178;30;20072;-85
2021/12/12 05:31:46;;;;;;;21.00;13.63;;;5.00;99.90;;;;;;4698621;30;20045;-85
2021/12/12 05:34:12;;;;;;;20.05;13.20;;;5.00;99.90;;;;;;4696654;30;20053;-85
2021/12/12 05:36:38;;;;;;;20.13;13.00;;;5.00;99.90;;;;;;4696171;30;20061;-89
2021/12/12 05:39:05;;;;;;;19.77;11.90;;;5.00;99.90;;;;;;4668994;30;20150;-86
2021/12/12 05:41:32;;;;;;;20.07;12.70;;;5.00;99.90;;;;;;4686601;30;20136;-84
2021/12/12 05:43:59;;;;;;;21.30;12.30;;;5.00;99.90;;;;;;4698186;30;20056;-87
2021/12/12 05:46:25;;;;;;;21.00;12.43;;;5.00;99.90;;;;;;4685378;30;20522;-88
2021/12/12 05:48:53;;;;;;;18.43;11.90;;;5.00;99.90;;;;;;4688663;30;20042;-82
2021/12/12 05:51:21;;;;;;;17.13;10.77;;;5.10;99.90;;;;;;4681255;30;20076;-84
2021/12/12 05:53:54;;;;;;;17.10;12.10;;;5.10;99.90;;;;;;4677512;30;20042;-88
2021/12/12 05:56:29;;;;;;;18.87;12.00;;;5.10;99.90;;;;;;4682210;30;20054;-85
2021/12/12 05:58:56;;;;;;;18.30;11.83;;;5.10;99.90;;;;;;4682997;30;20046;-88
2021/12/12 06:01:23;;;;;;;19.10;11.33;;;5.10;99.90;;;;;;4684646;30;21490;-88
2021/12/12 06:03:50;;;;;;;16.37;11.33;;;5.20;99.90;;;;;;4698483;30;20124;-88
2021/12/12 06:06:24;;;;;;;20.00;11.97;;;5.20;99.90;;;;;;4700118;30;20084;-86
2021/12/12 06:08:50;;;;;;;14.87;11.00;;;5.20;99.90;;;;;;4701901;30;20468;-86
2021/12/12 06:11:20;;;;;;;17.70;11.67;;;5.20;99.90;;;;;;4680890;30;20045;-86
2021/12/12 06:13:46;;;;;;;16.37;10.53;;;5.20;99.90;;;;;;4685750;30;20136;-85
2021/12/12 06:16:19;;;;;;;17.73;11.13;;;5.20;99.90;;;;;;4697700;30;20513;-86
2021/12/12 06:18:48;;;;;;;18.07;10.93;;;5.20;99.90;;;;;;4684942;30;20053;-86
2021/12/12 06:21:14;;;;;;;16.67;10.53;;;5.20;99.90;;;;;;4680575;30;20530;-86
2021/12/12 06:23:40;;;;;;;16.53;11.03;;;5.20;99.90;;;;;;4669645;30;20398;-87
2021/12/12 06:26:06;;;;;;;19.90;11.20;;;5.30;99.90;;;;;;4683501;30;20046;-85
2021/12/12 06:28:36;;;;;;;18.73;11.67;;;5.30;99.90;;;;;;4684895;30;20044;-86
2021/12/12 06:31:02;;;;;;;15.13;10.50;;;5.30;99.90;;;;;;4695308;30;20141;-88
2021/12/12 06:33:29;;;;;;;14.10;10.17;;;5.30;99.90;;;;;;4670812;30;20061;-85
2021/12/12 06:35:55;;;;;;;14.33;9.97;;;5.30;99.90;;;;;;4699044;30;20144;-86
2021/12/12 06:38:22;;;;;;;15.37;9.67;;;5.40;99.90;;;;;;4647952;30;20164;-80
2021/12/12 06:40:48;;;;;;;12.97;9.23;;;5.40;99.90;;;;;;4697773;30;20057;-81
2021/12/12 06:43:18;;;;;;;18.57;10.53;;;5.40;99.90;;;;;;4668394;30;20072;-80
2021/12/12 06:45:44;;;;;;;14.77;10.03;;;5.40;99.90;;;;;;4675136;30;20131;-80
2021/12/12 06:48:12;;;;;;;17.97;11.57;;;5.50;99.90;;;;;;4684118;30;20064;-80
2021/12/12 06:50:40;;;;;;;15.97;10.70;;;5.50;99.90;;;;;;4683856;30;20048;-81
2021/12/12 06:53:07;;;;;;;14.67;10.50;;;5.40;99.90;;;;;;4698370;30;20074;-79
2021/12/12 06:55:36;;;;;;;15.60;10.53;;;5.50;99.90;;;;;;4682538;30;20072;-80
2021/12/12 06:58:06;;;;;;;14.93;10.03;;;5.50;99.90;;;;;;4659160;30;20672;-81
2021/12/12 07:00:33;;;;;;;14.37;10.87;;;5.50;99.90;;;;;;4696204;30;20060;-80
2021/12/12 07:02:59;;;;;;;15.93;10.37;;;5.60;99.90;;;;;;4683307;30;20601;-80
2021/12/12 07:05:27;;;;;;;13.67;9.43;;;5.60;99.90;;;;;;4697060;30;20049;-81
2021/12/12 07:07:54;;;;;;;13.83;9.97;;;5.60;99.90;;;;;;4696914;30;20065;-80
2021/12/12 07:10:24;;;;;;;14.17;8.57;;;5.60;99.90;;;;;;4683122;30;20094;-81
2021/12/12 07:12:55;;;;;;;15.17;9.30;;;5.70;99.90;;;;;;4695381;30;20049;-79
2021/12/12 07:15:27;;;;;;;13.18;9.45;;;5.70;99.90;;;;;;4696378;30;20042;-80
2021/12/12 07:17:55;;;;;;;12.15;9.10;;;5.60;99.90;;;;;;4695412;30;20049;-81
2021/12/12 07:20:22;;;;;;;15.67;9.70;;;5.70;99.90;;;;;;4691599;30;20045;-79
2021/12/12 07:22:48;;;;;;;14.33;9.37;;;5.60;99.90;;;;;;4696552;30;20046;-80
2021/12/12 07:25:15;;;;;;;12.43;9.00;;;5.70;99.90;;;;;;4680560;30;20045;-79
2021/12/12 07:27:41;;;;;;;14.30;9.33;;;5.70;99.90;;;;;;4694641;30;20069;-80
2021/12/12 07:30:09;;;;;;;10.87;8.47;;;5.70;99.90;;;;;;4680291;30;20050;-80
2021/12/12 07:32:37;;;;;;;11.87;8.47;;;5.70;99.90;;;;;;4691609;30;20041;-79
2021/12/12 07:35:12;;;;;;;13.30;8.73;;;5.70;99.90;;;;;;4678726;30;20118;-78
2021/12/12 07:37:39;;;;;;;14.37;9.77;;;5.70;99.90;;;;;;4679085;30;20100;-78
2021/12/12 07:40:08;;;;;;;15.07;10.20;;;5.70;99.90;;;;;;4658962;30;20045;-79
2021/12/12 07:42:34;;;;;;;15.90;10.23;;;5.70;99.90;;;;;;4694039;30;20415;-79
2021/12/12 07:45:04;;;;;;;13.87;9.10;;;5.70;99.90;;;;;;4681777;30;20046;-79
2021/12/12 07:47:31;;;;;;;13.63;9.60;;;5.80;99.90;;;;;;4692809;30;20056;-78
2021/12/12 07:49:57;;;;;;;13.30;9.23;;;5.80;99.90;;;;;;4680411;30;20046;-78
2021/12/12 07:52:26;;;;;;;15.13;10.20;;;5.80;99.90;;;;;;4665513;30;20052;-86
2021/12/12 07:54:53;;;;;;;13.23;8.80;;;5.80;99.90;;;;;;4680689;30;20395;-87
2021/12/12 07:57:21;;;;;;;13.33;9.83;;;5.90;99.90;;;;;;4682227;30;20053;-85
2021/12/12 07:59:47;;;;;;;15.23;9.93;;;5.90;99.90;;;;;;4696245;30;20054;-85
2021/12/12 08:02:16;;;;;;;14.73;10.43;;;6.00;99.90;;;;;;4661132;30;20544;-80
2021/12/12 08:04:43;;;;;;;15.43;10.07;;;6.10;99.90;;;;;;4678092;30;20466;-79
2021/12/12 08:07:15;;;;;;;14.33;9.73;;;6.00;99.90;;;;;;4694146;30;20069;-79
2021/12/12 08:09:42;;;;;;;;;;;6.10;99.90;;;;;;4680908;30;20048;-78
2021/12/12 08:12:17;;;;;;;14.67;9.67;;;6.00;99.90;;;;;;4680831;30;20435;-78
2021/12/12 08:14:43;;;;;;;15.57;9.63;;;6.00;99.90;;;;;;4681377;30;20502;-79
2021/12/12 08:17:11;;;;;;;15.73;9.20;;;6.10;99.90;;;;;;4682619;30;20060;-79
2021/12/12 08:19:37;;;;;;;15.10;10.03;;;6.10;99.90;;;;;;4682426;30;20053;-78
2021/12/12 08:22:06;;;;;;;15.30;9.70;;;6.10;99.90;;;;;;4685042;30;20388;-79
2021/12/12 08:24:35;;;;;;;15.23;10.33;;;6.10;99.90;;;;;;4680190;30;20049;-78
2021/12/12 08:27:03;;;;;;;14.17;9.60;;;6.10;99.90;;;;;;4682688;30;20049;-79
2021/12/12 08:29:30;;;;;;;15.17;10.23;;;6.10;99.90;;;;;;4687952;30;20530;-77
2021/12/12 08:31:56;;;;;;;15.43;10.43;;;6.10;99.90;;;;;;4699189;30;20045;-82
2021/12/12 08:34:22;;;;;;;14.63;9.00;;;6.10;99.90;;;;;;4698677;30;20084;-81
2021/12/12 08:36:51;;;;;;;14.67;10.00;;;6.10;99.90;;;;;;4682272;30;20076;-81
2021/12/12 08:39:18;;;;;;;11.87;8.63;;;6.10;99.90;;;;;;4700875;30;20056;-82
2021/12/12 08:41:47;;;;;;;19.40;10.03;;;6.10;99.90;;;;;;4706100;30;20142;-84
2021/12/12 08:44:14;;;;;;;15.37;9.90;;;6.10;99.90;;;;;;4699009;30;20061;-85
2021/12/12 08:46:45;;;;;;;15.23;10.40;;;6.10;99.90;;;;;;4696825;30;20056;-84
2021/12/12 08:49:13;;;;;;;17.20;10.70;;;6.10;99.90;;;;;;4680278;30;20443;-83
2021/12/12 08:52:06;;;;;;;17.20;10.70;;;6.20;99.90;;;;;;4691332;30;20042;-82
2021/12/12 08:54:36;;;;;;;15.53;10.90;;;6.10;99.90;;;;;;4678663;30;20519;-83
2021/12/12 08:57:30;;;;;;;19.13;11.93;;;6.20;99.90;;;;;;4677105;30;20050;-83
2021/12/12 08:59:57;;;;;;;17.43;11.73;;;6.20;99.90;;;;;;4699572;30;20419;-82
2021/12/12 09:02:24;;;;;;;18.33;11.43;;;6.20;99.90;;;;;;4688885;30;20593;-85
2021/12/12 09:04:55;;;;;;;18.80;11.70;;;6.20;99.90;;;;;;4678444;30;20102;-83
2021/12/12 09:07:34;;;;;;;19.20;11.87;;;6.30;99.90;;;;;;4702497;30;20129;-83
2021/12/12 09:10:15;;;;;;;23.53;13.50;;;6.40;99.90;;;;;;4701253;30;20052;-82
2021/12/12 09:13:04;;;;;;;18.25;11.50;;;6.30;99.90;;;;;;4690011;30;20469;-84
2021/12/12 09:15:35;;;;;;;21.53;12.33;;;6.40;99.90;;;;;;4684224;30;20411;-83
2021/12/12 09:18:18;;;;;;;22.65;12.27;;;6.40;99.90;;;;;;4698673;30;20388;-83
2021/12/12 09:20:52;;;;;;;20.50;13.03;;;6.40;99.90;;;;;;4683057;30;20089;-84
2021/12/12 09:23:28;;;;;;;18.63;12.23;;;6.40;99.90;;;;;;4678493;30;20163;-85
2021/12/12 09:26:07;;;;;;;19.80;12.17;;;6.50;99.90;;;;;;4689606;30;20041;-83
2021/12/12 09:28:47;;;;;;;19.87;11.87;;;6.50;99.90;;;;;;4681584;30;20041;-84
2021/12/12 09:31:41;;;;;;;24.30;13.47;;;6.50;99.90;;;;;;4690076;30;20041;-86
2021/12/12 09:34:20;;;;;;;15.90;10.67;;;6.50;99.90;;;;;;4686276;30;20061;-86
2021/12/12 09:36:58;;;;;;;18.83;11.50;;;6.50;99.90;;;;;;4686921;30;20096;-86
2021/12/12 09:39:41;;;;;;;23.87;13.27;;;6.60;99.90;;;;;;4716345;30;20053;-85
2021/12/12 09:42:27;;;;;;;24.40;13.13;;;6.60;99.90;;;;;;4698345;30;20087;-85
2021/12/12 09:45:30;;;;;;;22.77;13.80;;;6.60;99.90;;;;;;4701300;30;20060;-85
2021/12/12 09:51:56;;;;;;;29.93;14.97;;;6.70;99.90;;;;;;4648979;30;20089;-85
2021/12/12 09:54:31;;;;;;;30.47;15.33;;;6.70;99.90;;;;;;4706208;30;20056;-83
2021/12/12 09:57:26;;;;;;;31.33;15.63;;;6.70;99.90;;;;;;4709256;30;20055;-85
2021/12/12 09:59:54;;;;;;;29.83;16.00;;;6.80;99.90;;;;;;4644448;30;20112;-83
2021/12/12 10:02:26;;;;;;;34.70;17.60;;;6.90;99.90;;;;;;4686686;30;21496;-84
2021/12/12 10:05:14;;;;;;;34.95;17.15;;;6.90;99.90;;;;;;4679634;30;20049;-85
2021/12/12 10:07:46;;;;;;;40.27;19.20;;;7.00;99.90;;;;;;4698777;30;20038;-85
2021/12/12 10:10:27;;;;;;;35.40;17.73;;;7.00;99.90;;;;;;4703336;30;20045;-84
2021/12/12 10:13:19;;;;;;;38.28;18.30;;;7.00;99.90;;;;;;4688919;30;20496;-83
2021/12/12 10:15:55;;;;;;;34.57;16.77;;;7.10;99.90;;;;;;4701112;30;20048;-84
2021/12/12 10:18:38;;;;;;;40.83;19.40;;;7.20;99.90;;;;;;4686414;30;20056;-86
2021/12/12 10:21:33;;;;;;;41.63;18.50;;;7.20;99.90;;;;;;4675402;30;20046;-85
2021/12/12 10:24:26;;;;;;;30.27;15.55;;;7.30;99.90;;;;;;4695344;30;20085;-85
2021/12/12 10:27:00;;;;;;;37.03;18.57;;;7.30;99.90;;;;;;4699729;30;20045;-84
2021/12/12 10:29:49;;;;;;;50.20;19.87;;;7.40;99.90;;;;;;4677977;30;20042;-85
2021/12/12 10:32:22;;;;;;;28.37;14.50;;;7.50;99.90;;;;;;4702144;30;20085;-85
2021/12/12 10:35:14;;;;;;;33.93;16.87;;;7.50;99.90;;;;;;4695851;30;20144;-85
2021/12/12 10:37:53;;;;;;;32.92;15.88;;;7.50;99.90;;;;;;4684911;30;20046;-85
2021/12/12 10:40:48;;;;;;;40.63;17.60;;;7.60;99.90;;;;;;4690871;30;20511;-84
2021/12/12 10:43:22;;;;;;;29.93;15.70;;;7.60;99.90;;;;;;4676778;30;20108;-87
2021/12/12 10:45:56;;;;;;;31.83;16.73;;;7.70;99.90;;;;;;4694207;30;20563;-84
2021/12/12 10:48:32;;;;;;;28.77;15.73;;;7.70;99.90;;;;;;4699190;30;20052;-85
2021/12/12 10:51:12;;;;;;;32.80;15.63;;;7.80;99.90;;;;;;4680856;30;20042;-87
2021/12/12 10:53:49;;;;;;;31.03;16.00;;;7.80;99.90;;;;;;4694148;30;20069;-86
2021/12/12 10:56:42;;;;;;;32.97;15.83;;;7.80;99.90;;;;;;4677142;30;20049;-84
2021/12/12 10:59:20;;;;;;;35.83;16.30;;;7.80;99.90;;;;;;4674066;30;20046;-86
2021/12/12 11:01:49;;;;;;;31.80;16.40;;;7.80;99.90;;;;;;4668551;30;20132;-85
2021/12/12 11:04:21;;;;;;;32.80;16.67;;;7.90;99.90;;;;;;4685845;30;20419;-84
2021/12/12 11:06:58;;;;;;;28.05;16.92;;;7.90;99.90;;;;;;4686682;30;20084;-86
2021/12/12 11:09:30;;;;;;;33.40;16.00;;;7.90;99.90;;;;;;4681376;30;20042;-86
2021/12/12 11:12:16;;;;;;;26.67;15.18;;;7.90;99.90;;;;;;4686493;30;20053;-86
2021/12/12 11:14:52;;;;;;;26.57;13.30;;;7.90;99.90;;;;;;4696265;30;20133;-85
2021/12/12 11:17:26;;;;;;;27.57;14.70;;;8.00;99.90;;;;;;4705538;30;20057;-82
2021/12/12 11:19:58;;;;;;;28.43;14.27;;;8.00;99.90;;;;;;4706430;30;20289;-84
2021/12/12 11:22:24;;;;;;;;;;;8.10;99.90;;;;;;4699874;30;20144;-85
2021/12/12 11:24:58;;;;;;;23.80;13.03;;;8.10;99.90;;;;;;4688387;30;20440;-84
2021/12/12 11:27:44;;;;;;;25.90;13.90;;;8.10;99.90;;;;;;4693846;30;20104;-86
2021/12/12 11:30:25;;;;;;;22.07;13.13;;;8.10;99.90;;;;;;4702850;30;20041;-86
2021/12/12 11:32:53;;;;;;;23.90;12.43;;;8.10;99.90;;;;;;4699109;30;20048;-85
2021/12/12 11:35:21;;;;;;;24.27;12.97;;;8.20;99.90;;;;;;4693428;30;20343;-85
2021/12/12 11:38:05;;;;;;;21.83;11.47;;;8.20;99.90;;;;;;4698485;30;20085;-86
2021/12/12 11:41:04;;;;;;;22.83;11.90;;;8.20;99.90;;;;;;4681890;30;20105;-85
2021/12/12 11:43:41;;;;;;;20.13;11.70;;;8.30;99.90;;;;;;4689925;30;20580;-84
2021/12/12 11:46:35;;;;;;;24.27;13.30;;;8.30;99.90;;;;;;4698403;30;20034;-83
2021/12/12 11:49:23;;;;;;;23.13;12.07;;;8.40;99.90;;;;;;4697212;30;20037;-85
2021/12/12 11:51:55;;;;;;;23.07;11.67;;;8.40;99.90;;;;;;4680027;30;20046;-85
2021/12/12 11:54:54;;;;;;;25.33;13.07;;;8.40;99.90;;;;;;4692003;30;20499;-85
2021/12/12 11:57:27;;;;;;;21.40;13.20;;;8.50;99.90;;;;;;4692809;30;20061;-86
2021/12/12 11:59:59;;;;;;;22.83;13.00;;;8.50;99.90;;;;;;4698340;30;20200;-83
2021/12/12 12:03:03;;;;;;;23.90;13.00;;;8.50;99.90;;;;;;4682597;30;20042;-85
2021/12/12 12:05:52;;;;;;;23.50;12.60;;;8.50;99.90;;;;;;4671798;30;20062;-85
2021/12/12 12:08:41;;;;;;;21.77;11.60;;;8.60;99.90;;;;;;4695540;30;20075;-86
2021/12/12 12:11:27;;;;;;;22.90;12.73;;;8.60;99.90;;;;;;4686766;30;20057;-85
2021/12/12 12:14:30;;;;;;;22.50;12.97;;;8.60;99.90;;;;;;4698477;30;20045;-85
2021/12/12 12:17:21;;;;;;;25.23;13.43;;;8.60;99.90;;;;;;4615037;30;20050;-84
2021/12/12 12:20:08;;;;;;;25.87;12.67;;;8.60;99.90;;;;;;4694195;30;20049;-84
2021/12/12 12:22:47;;;;;;;22.67;12.13;;;8.60;99.90;;;;;;4671646;30;20057;-85
2021/12/12 12:25:25;;;;;;;23.10;12.37;;;8.70;99.90;;;;;;4673497;30;20507;-86
2021/12/12 12:27:55;;;;;;;20.13;11.40;;;8.70;99.90;;;;;;4683039;30;20045;-84
2021/12/12 12:30:30;;;;;;;21.23;11.53;;;8.80;99.90;;;;;;4696243;30;20139;-85
2021/12/12 12:33:08;;;;;;;20.67;11.33;;;8.70;99.90;;;;;;4697796;30;20045;-84
2021/12/12 12:36:12;;;;;;;21.30;11.33;;;8.80;99.90;;;;;;4693194;30;20049;-85
2021/12/12 12:39:17;;;;;;;20.43;11.73;;;8.80;99.90;;;;;;4699123;30;20053;-85
2021/12/12 12:42:08;;;;;;;26.47;13.23;;;8.80;99.90;;;;;;4684580;30;20107;-85
2021/12/12 12:45:12;;;;;;;21.83;12.20;;;8.80;99.90;;;;;;4668903;30;20581;-84
2021/12/12 12:47:43;;;;;;;26.87;13.33;;;8.80;99.90;;;;;;4677115;30;20062;-83
2021/12/12 12:50:31;;;;;;;26.67;13.50;;;8.80;99.90;;;;;;4697211;30;20522;-85
2021/12/12 12:53:15;;;;;;;27.40;14.30;;;8.90;99.90;;;;;;4692337;30;20054;-84
2021/12/12 12:56:00;;;;;;;30.13;15.10;;;8.90;99.90;;;;;;4691821;30;20042;-85
2021/12/12 12:58:32;;;;;;;25.60;14.37;;;8.90;99.90;;;;;;4683946;30;20136;-84
2021/12/12 13:01:25;;;;;;;28.13;14.45;;;8.90;99.90;;;;;;4696509;30;20049;-84
2021/12/12 13:04:22;;;;;;;27.10;14.80;;;9.00;99.90;;;;;;4678746;30;20046;-85
2021/12/12 13:07:21;;;;;;;29.27;15.00;;;9.00;99.90;;;;;;4682841;30;20049;-84
2021/12/12 13:10:19;;;;;;;31.67;14.73;;;9.00;99.90;;;;;;4700202;30;20133;-85
2021/12/12 13:13:07;;;;;;;25.90;14.07;;;9.00;99.90;;;;;;4684030;30;20057;-83
2021/12/12 13:15:42;;;;;;;26.07;14.13;;;9.00;99.90;;;;;;4679548;30;20045;-85
2021/12/12 13:18:32;;;;;;;25.43;13.47;;;9.10;99.90;;;;;;4675707;30;20049;-84
2021/12/12 13:21:28;;;;;;;29.07;14.53;;;9.10;99.90;;;;;;4681162;30;20057;-83
2021/12/12 13:23:55;;;;;;;28.13;14.97;;;9.10;99.90;;;;;;4697478;30;20090;-84
2021/12/12 13:27:16;;;;;;;28.37;15.17;;;9.10;99.90;;;;;;4705260;30;20427;-81
2021/12/12 13:30:06;;;;;;;24.57;13.57;;;9.20;99.90;;;;;;4676092;30;20052;-84
2021/12/12 13:32:46;;;;;;;31.10;14.67;;;9.20;99.90;;;;;;4686872;30;20500;-84
2021/12/12 13:35:57;;;;;;;25.33;13.73;;;9.20;99.90;;;;;;4700477;30;20097;-84